Time;durP1;ratioP1;P1;durP2;ratioP2;P2;SDS_P1;SDS_P2;PMS_P1;PMS_P2;Temp;Humidity;BMP_temperature;BMP_pressure;BME280_temperature;BME280_humidity;BME280_pressure;Samples;Min_cycle;Max_cycle;Signal;HPM_P1;HPM_P2
2022/03/30 00:02:03;;;;;;;3.77;2.20;;;6.00;99.90;;;;;;4946762;28;20459;-71
2022/03/30 00:04:51;;;;;;;5.70;2.73;;;6.00;99.90;;;;;;4941970;28;20454;-71
2022/03/30 00:07:39;;;;;;;3.27;2.00;;;6.00;99.90;;;;;;4938920;28;23595;-72
2022/03/30 00:10:27;;;;;;;7.80;2.67;;;6.00;99.90;;;;;;4934910;28;20551;-72
2022/03/30 00:13:16;;;;;;;4.60;2.60;;;6.00;99.90;;;;;;4937863;28;20475;-71
2022/03/30 00:16:04;;;;;;;5.43;2.20;;;6.00;99.90;;;;;;4937648;28;20631;-72
2022/03/30 00:18:54;;;;;;;5.70;2.40;;;6.00;99.90;;;;;;4940301;28;20523;-72
2022/03/30 00:21:42;;;;;;;4.60;2.27;;;6.00;99.90;;;;;;4942469;28;20499;-71
2022/03/30 00:24:30;;;;;;;4.13;2.03;;;5.90;99.90;;;;;;4938757;28;20456;-71
2022/03/30 00:27:18;;;;;;;4.63;2.10;;;5.90;99.90;;;;;;4944977;28;20673;-71
2022/03/30 00:30:07;;;;;;;5.40;2.93;;;5.90;99.90;;;;;;4943230;28;20626;-72
2022/03/30 00:32:56;;;;;;;6.00;2.63;;;5.90;99.90;;;;;;4944857;28;20498;-72
2022/03/30 00:35:46;;;;;;;4.00;2.27;;;5.80;99.90;;;;;;4944412;28;20934;-72
2022/03/30 00:38:34;;;;;;;10.70;2.37;;;5.90;99.90;;;;;;4944528;28;20527;-72
2022/03/30 00:41:22;;;;;;;4.90;2.20;;;5.90;99.90;;;;;;4939973;28;20454;-72
2022/03/30 00:44:11;;;;;;;4.83;2.13;;;5.90;99.90;;;;;;4942926;28;20622;-72
2022/03/30 00:47:11;;;;;;;3.73;2.20;;;5.80;99.90;;;;;;4946758;28;20597;-71
2022/03/30 00:49:59;;;;;;;6.07;2.80;;;5.80;99.90;;;;;;4935747;28;20986;-71
2022/03/30 00:52:51;;;;;;;4.90;2.23;;;5.80;99.90;;;;;;4941647;28;20469;-72
2022/03/30 00:55:39;;;;;;;6.57;2.67;;;5.80;99.90;;;;;;4940953;28;20499;-72
2022/03/30 00:58:28;;;;;;;9.20;2.97;;;5.80;99.90;;;;;;4939604;28;20997;-72
2022/03/30 01:01:16;;;;;;;4.07;2.23;;;5.80;99.90;;;;;;4942301;28;20518;-72
2022/03/30 01:04:05;;;;;;;5.67;2.13;;;5.70;99.90;;;;;;4937571;28;20557;-71
2022/03/30 01:06:53;;;;;;;4.00;1.80;;;5.70;99.90;;;;;;4932635;28;20510;-72
2022/03/30 01:09:43;;;;;;;5.40;2.47;;;5.60;99.90;;;;;;4932846;28;20471;-72
2022/03/30 01:12:34;;;;;;;7.07;2.50;;;5.60;99.90;;;;;;4937485;28;20459;-71
2022/03/30 01:15:23;;;;;;;5.40;2.50;;;5.70;99.90;;;;;;4936017;28;21191;-72
2022/03/30 01:18:11;;;;;;;6.43;2.60;;;5.70;99.90;;;;;;4940196;28;20578;-72
2022/03/30 01:21:00;;;;;;;5.83;2.33;;;5.60;99.90;;;;;;4933676;28;20694;-71
2022/03/30 01:23:48;;;;;;;3.70;2.13;;;5.60;99.90;;;;;;4940249;28;20505;-72
2022/03/30 01:26:37;;;;;;;5.47;2.50;;;5.60;99.90;;;;;;4939129;28;20526;-71
2022/03/30 01:32:31;;;;;;;5.83;2.20;;;5.70;99.90;;;;;;4935661;28;20880;-72
2022/03/30 01:35:19;;;;;;;6.03;2.07;;;5.70;99.90;;;;;;4939354;28;20501;-71
2022/03/30 01:38:10;;;;;;;4.07;1.80;;;5.60;99.90;;;;;;4939406;28;20482;-71
2022/03/30 01:40:58;;;;;;;5.80;2.20;;;5.60;99.90;;;;;;4938561;28;20522;-71
2022/03/30 01:43:46;;;;;;;5.70;2.73;;;5.60;99.90;;;;;;4943551;28;20607;-72
2022/03/30 01:46:38;;;;;;;9.00;2.50;;;5.60;99.90;;;;;;4934642;28;21034;-72
2022/03/30 01:49:27;;;;;;;5.10;2.40;;;5.60;99.90;;;;;;4936154;28;20455;-71
2022/03/30 01:52:16;;;;;;;4.50;1.90;;;5.60;99.90;;;;;;4934251;28;20520;-70
2022/03/30 01:55:07;;;;;;;5.10;2.53;;;5.60;99.90;;;;;;4938072;28;20485;-69
2022/03/30 01:57:55;;;;;;;5.07;2.57;;;5.60;99.90;;;;;;4934719;28;21029;-70
2022/03/30 02:00:44;;;;;;;5.30;2.20;;;5.60;99.90;;;;;;4940773;28;20995;-70
2022/03/30 02:03:32;;;;;;;4.37;2.50;;;5.60;99.90;;;;;;4940463;28;20466;-70
2022/03/30 02:06:24;;;;;;;4.17;2.13;;;5.60;99.90;;;;;;4933291;28;20554;-70
2022/03/30 02:09:14;;;;;;;6.83;2.30;;;5.60;99.90;;;;;;4940305;28;20626;-70
2022/03/30 02:12:04;;;;;;;6.00;2.80;;;5.60;99.90;;;;;;4937019;28;20554;-70
2022/03/30 02:14:53;;;;;;;5.23;3.70;;;5.50;99.90;;;;;;4937193;28;20896;-70
2022/03/30 02:17:42;;;;;;;6.90;3.00;;;5.50;99.90;;;;;;4937381;28;20475;-70
2022/03/30 02:20:30;;;;;;;5.43;2.20;;;5.50;99.90;;;;;;4941944;28;20451;-70
2022/03/30 02:23:19;;;;;;;3.00;2.50;;;5.50;99.90;;;;;;4931680;28;20500;-70
2022/03/30 02:26:07;;;;;;;6.00;2.20;;;5.50;99.90;;;;;;4930302;28;20498;-71
2022/03/30 02:28:56;;;;;;;6.17;2.87;;;5.50;99.90;;;;;;4932383;28;21094;-70
2022/03/30 02:31:45;;;;;;;7.73;2.40;;;5.50;99.90;;;;;;4935206;28;20581;-71
2022/03/30 02:34:33;;;;;;;7.70;3.07;;;5.50;99.90;;;;;;4936410;28;20448;-70
2022/03/30 02:37:21;;;;;;;4.10;2.30;;;5.50;99.90;;;;;;4934183;28;20630;-70
2022/03/30 02:40:10;;;;;;;3.00;2.23;;;5.50;99.90;;;;;;4932274;28;20586;-71
2022/03/30 02:42:58;;;;;;;6.80;2.40;;;5.50;99.90;;;;;;4933283;28;20998;-71
2022/03/30 02:45:48;;;;;;;4.90;2.20;;;5.50;99.90;;;;;;4938448;28;20534;-71
2022/03/30 02:48:37;;;;;;;4.53;2.27;;;5.50;99.90;;;;;;4936598;28;20550;-71
2022/03/30 02:51:27;;;;;;;3.80;2.20;;;5.50;99.90;;;;;;4940678;28;20496;-71
2022/03/30 02:54:15;;;;;;;3.43;1.90;;;5.50;99.90;;;;;;4939374;28;20813;-71
2022/03/30 02:57:04;;;;;;;6.23;2.60;;;5.50;99.90;;;;;;4940658;28;20550;-71
2022/03/30 02:59:52;;;;;;;5.97;2.53;;;5.50;99.90;;;;;;4943681;28;20455;-70
2022/03/30 03:02:41;;;;;;;3.47;2.00;;;5.40;99.90;;;;;;4940935;28;20932;-70
2022/03/30 03:05:32;;;;;;;2.73;2.20;;;5.40;99.90;;;;;;4940842;28;20782;-72
2022/03/30 03:08:20;;;;;;;3.80;1.97;;;5.40;99.90;;;;;;4940071;28;20620;-70
2022/03/30 03:11:08;;;;;;;4.90;2.13;;;5.40;99.90;;;;;;4937677;28;20924;-70
2022/03/30 03:13:56;;;;;;;5.67;2.30;;;5.40;99.90;;;;;;4941759;28;20473;-71
2022/03/30 03:16:44;;;;;;;7.03;2.87;;;5.40;99.90;;;;;;4935274;28;20885;-71
2022/03/30 03:19:34;;;;;;;8.30;2.23;;;5.40;99.90;;;;;;4939038;28;20802;-70
2022/03/30 03:22:22;;;;;;;4.33;1.87;;;5.40;99.90;;;;;;4935092;28;20595;-71
2022/03/30 03:25:11;;;;;;;8.40;2.10;;;5.30;99.90;;;;;;4938996;28;20463;-70
2022/03/30 03:28:00;;;;;;;3.53;1.53;;;5.30;99.90;;;;;;4938314;28;20515;-71
2022/03/30 03:30:48;;;;;;;4.80;1.83;;;5.30;99.90;;;;;;4945189;28;20459;-70
2022/03/30 03:33:37;;;;;;;3.13;1.57;;;5.30;99.90;;;;;;4936362;28;20459;-70
2022/03/30 03:36:26;;;;;;;2.83;1.80;;;5.40;99.90;;;;;;4940444;28;20900;-70
2022/03/30 03:39:14;;;;;;;2.40;1.50;;;5.30;99.90;;;;;;4940072;28;20943;-70
2022/03/30 03:42:02;;;;;;;1.77;1.20;;;5.30;99.90;;;;;;4939587;28;20545;-70
2022/03/30 03:44:51;;;;;;;2.93;1.50;;;5.30;99.90;;;;;;4942150;28;20471;-70
2022/03/30 03:47:41;;;;;;;2.50;1.50;;;5.30;99.90;;;;;;4941089;28;20479;-71
2022/03/30 03:50:29;;;;;;;3.77;1.73;;;5.30;99.90;;;;;;4937584;28;20471;-70
2022/03/30 03:53:18;;;;;;;4.40;1.47;;;5.20;99.90;;;;;;4937680;28;20463;-71
2022/03/30 03:56:06;;;;;;;6.33;1.70;;;5.20;99.90;;;;;;4944674;28;20562;-71
2022/03/30 03:58:55;;;;;;;7.90;1.80;;;5.20;99.90;;;;;;4941745;28;20578;-71
2022/03/30 04:01:44;;;;;;;3.60;1.80;;;5.30;99.90;;;;;;4940718;28;20449;-71
2022/03/30 04:04:32;;;;;;;2.53;1.50;;;5.30;99.90;;;;;;4938409;28;20459;-71
2022/03/30 04:07:20;;;;;;;1.73;1.20;;;5.20;99.90;;;;;;4935332;28;20471;-71
2022/03/30 04:10:11;;;;;;;2.43;1.33;;;5.20;99.90;;;;;;4945252;28;20509;-71
2022/03/30 04:12:59;;;;;;;4.70;1.47;;;5.20;99.90;;;;;;4941200;28;20549;-71
2022/03/30 04:15:47;;;;;;;4.53;1.83;;;5.20;99.90;;;;;;4944021;28;20549;-73
2022/03/30 04:18:40;;;;;;;2.30;1.30;;;5.20;99.90;;;;;;4940288;28;20950;-71
2022/03/30 04:21:28;;;;;;;4.10;1.50;;;5.10;99.90;;;;;;4945304;28;20479;-72
2022/03/30 04:24:17;;;;;;;2.83;1.53;;;5.10;99.90;;;;;;4942351;28;20593;-71
2022/03/30 04:27:06;;;;;;;3.93;1.27;;;5.10;99.90;;;;;;4941845;28;20471;-71
2022/03/30 04:29:54;;;;;;;4.70;1.47;;;5.10;99.90;;;;;;4941992;28;20581;-72
2022/03/30 04:32:43;;;;;;;1.60;1.20;;;5.10;99.90;;;;;;4929940;28;20932;-73
2022/03/30 04:35:31;;;;;;;5.07;1.57;;;5.10;99.90;;;;;;4939671;28;20510;-71
2022/03/30 04:38:19;;;;;;;2.87;1.57;;;5.10;99.90;;;;;;4940536;28;20498;-71
2022/03/30 04:41:07;;;;;;;1.77;1.13;;;5.10;99.90;;;;;;4929438;28;20546;-71
2022/03/30 04:43:57;;;;;;;2.63;1.43;;;5.00;99.90;;;;;;4941369;28;20983;-71
2022/03/30 04:46:45;;;;;;;2.80;1.50;;;5.00;99.90;;;;;;4937684;28;20550;-69
2022/03/30 04:49:26;;;;;;;5.90;1.70;;;5.10;99.90;;;;;;4944067;28;20518;-70
2022/03/30 04:52:14;;;;;;;4.53;1.57;;;5.10;99.90;;;;;;4935048;28;21441;-69
2022/03/30 04:55:02;;;;;;;1.90;1.63;;;5.10;99.90;;;;;;4944534;28;20479;-69
2022/03/30 04:57:50;;;;;;;2.23;1.37;;;5.00;99.90;;;;;;4942100;28;20991;-70
2022/03/30 05:00:41;;;;;;;4.07;1.80;;;5.00;99.90;;;;;;4942947;28;20451;-69
2022/03/30 05:03:30;;;;;;;3.80;1.50;;;5.00;99.90;;;;;;4939613;28;21006;-70
2022/03/30 05:06:18;;;;;;;7.57;1.90;;;5.00;99.90;;;;;;4940236;28;20464;-71
2022/03/30 05:09:06;;;;;;;3.77;1.63;;;5.00;99.90;;;;;;4944752;28;20574;-70
2022/03/30 05:11:54;;;;;;;1.60;1.33;;;5.00;99.90;;;;;;4944112;28;20542;-69
2022/03/30 05:14:42;;;;;;;2.20;1.30;;;5.10;99.90;;;;;;4951440;28;20570;-70
2022/03/30 05:17:32;;;;;;;2.63;1.10;;;5.10;99.90;;;;;;4940446;28;20538;-70
2022/03/30 05:20:20;;;;;;;1.90;1.50;;;5.10;99.90;;;;;;4935937;28;20977;-67
2022/03/30 05:23:08;;;;;;;2.30;1.23;;;5.20;99.90;;;;;;4942251;28;20455;-67
2022/03/30 05:25:56;;;;;;;2.63;1.83;;;5.20;99.90;;;;;;4949294;28;20919;-68
2022/03/30 05:28:44;;;;;;;3.83;1.53;;;5.20;99.90;;;;;;4945460;28;20479;-68
2022/03/30 05:31:32;;;;;;;2.40;1.80;;;5.10;99.90;;;;;;4956338;28;20454;-68
2022/03/30 05:34:22;;;;;;;2.80;1.90;;;5.00;99.90;;;;;;4944329;28;20982;-67
2022/03/30 05:37:10;;;;;;;3.73;1.80;;;5.00;99.90;;;;;;4928191;28;20681;-67
2022/03/30 05:39:59;;;;;;;3.37;1.80;;;5.00;99.90;;;;;;4945086;28;20574;-67
2022/03/30 05:42:47;;;;;;;2.90;1.50;;;5.10;99.90;;;;;;4935359;28;20459;-68
2022/03/30 05:45:35;;;;;;;4.23;1.50;;;5.00;99.90;;;;;;4941778;28;20455;-67
2022/03/30 05:48:25;;;;;;;4.70;2.00;;;4.90;99.90;;;;;;4949201;28;20536;-68
2022/03/30 05:51:14;;;;;;;3.40;1.80;;;4.90;99.90;;;;;;4946174;28;20960;-67
2022/03/30 05:54:02;;;;;;;3.13;1.90;;;4.90;99.90;;;;;;4950113;28;20854;-67
2022/03/30 05:57:03;;;;;;;2.50;2.07;;;4.90;99.90;;;;;;4947439;28;20458;-67
2022/03/30 05:59:52;;;;;;;5.03;2.00;;;4.90;99.90;;;;;;4950039;28;20943;-67
2022/03/30 06:02:40;;;;;;;5.17;2.37;;;4.90;99.90;;;;;;4947548;28;20447;-66
2022/03/30 06:05:28;;;;;;;3.47;2.07;;;4.90;99.90;;;;;;4940001;28;20557;-67
2022/03/30 06:08:19;;;;;;;5.00;1.77;;;4.90;99.90;;;;;;4948897;28;20467;-67
2022/03/30 06:11:10;;;;;;;4.80;2.00;;;4.90;99.90;;;;;;4946095;28;20472;-67
2022/03/30 06:13:59;;;;;;;5.13;2.07;;;4.90;99.90;;;;;;4948398;28;20550;-67
2022/03/30 06:16:47;;;;;;;4.60;2.37;;;5.00;99.90;;;;;;4946230;28;20454;-67
2022/03/30 06:19:36;;;;;;;4.27;2.20;;;5.00;99.90;;;;;;4942177;28;20463;-67
2022/03/30 06:22:27;;;;;;;4.40;1.97;;;5.00;99.90;;;;;;4950585;29;20487;-67
2022/03/30 06:25:17;;;;;;;3.57;2.10;;;5.00;99.90;;;;;;4947952;28;20493;-67
2022/03/30 06:28:05;;;;;;;5.73;2.50;;;5.00;99.90;;;;;;4947032;28;20561;-68
2022/03/30 06:30:54;;;;;;;5.43;2.73;;;5.00;99.90;;;;;;4943013;28;20458;-68
2022/03/30 06:33:42;;;;;;;6.23;2.57;;;5.00;99.90;;;;;;4956237;28;20611;-68
2022/03/30 06:36:31;;;;;;;2.80;2.10;;;5.00;99.90;;;;;;4950928;28;20507;-67
2022/03/30 06:39:19;;;;;;;4.60;3.27;;;5.00;99.90;;;;;;4946709;28;20690;-66
2022/03/30 06:42:10;;;;;;;3.60;2.10;;;5.00;99.90;;;;;;4949972;28;20513;-66
2022/03/30 06:44:58;;;;;;;5.30;2.30;;;5.00;99.90;;;;;;4949327;28;20447;-67
2022/03/30 06:47:46;;;;;;;3.60;2.20;;;5.00;99.90;;;;;;4953575;28;20587;-67
2022/03/30 06:50:35;;;;;;;4.10;2.70;;;5.00;99.90;;;;;;4951622;28;20981;-67
2022/03/30 06:53:23;;;;;;;2.17;1.77;;;5.10;99.90;;;;;;4953112;28;20865;-67
2022/03/30 06:56:11;;;;;;;1.30;1.17;;;5.10;99.90;;;;;;4947568;28;20941;-67
2022/03/30 06:59:01;;;;;;;2.03;1.03;;;5.00;99.90;;;;;;4948948;28;20598;-67
2022/03/30 07:01:55;;;;;;;4.17;1.50;;;5.00;99.90;;;;;;4947654;28;20702;-67
2022/03/30 07:04:44;;;;;;;5.00;1.70;;;5.00;99.90;;;;;;4940125;29;20567;-67
2022/03/30 07:10:38;;;;;;;4.90;2.80;;;5.00;99.90;;;;;;4948943;28;20447;-67
2022/03/30 07:13:26;;;;;;;6.77;2.90;;;5.00;99.90;;;;;;4945222;28;20558;-68
2022/03/30 07:16:15;;;;;;;4.23;2.67;;;5.00;99.90;;;;;;4956096;28;20985;-67
2022/03/30 07:19:04;;;;;;;3.20;2.53;;;5.10;99.90;;;;;;4949359;28;21199;-67
2022/03/30 07:21:52;;;;;;;2.83;2.20;;;5.10;99.90;;;;;;4949656;28;20451;-67
2022/03/30 07:24:40;;;;;;;3.40;2.50;;;5.10;99.90;;;;;;4947411;28;21010;-67
2022/03/30 07:27:30;;;;;;;7.10;2.50;;;5.00;99.90;;;;;;4954981;28;20558;-67
2022/03/30 07:30:20;;;;;;;3.40;2.70;;;5.00;99.90;;;;;;4948859;28;20494;-66
2022/03/30 07:33:10;;;;;;;4.90;2.50;;;5.10;99.90;;;;;;4947719;29;21048;-67
2022/03/30 07:35:59;;;;;;;4.00;2.70;;;5.00;99.90;;;;;;4949991;28;20459;-66
2022/03/30 07:38:47;;;;;;;3.83;2.37;;;5.00;99.90;;;;;;4953601;28;20571;-67
2022/03/30 07:41:36;;;;;;;4.10;2.80;;;5.00;99.90;;;;;;4947393;28;20460;-67
2022/03/30 07:44:24;;;;;;;5.00;2.60;;;5.10;99.90;;;;;;4942681;28;20455;-67
2022/03/30 07:47:12;;;;;;;3.23;2.20;;;5.10;99.90;;;;;;4946579;28;20552;-66
2022/03/30 07:50:04;;;;;;;3.50;2.23;;;5.10;99.90;;;;;;4953452;28;20455;-67
2022/03/30 07:52:52;;;;;;;4.90;2.90;;;5.20;99.90;;;;;;4952498;28;20469;-67
2022/03/30 07:55:40;;;;;;;4.70;4.30;;;5.20;99.90;;;;;;4945557;28;20486;-66
2022/03/30 07:58:28;;;;;;;4.70;2.30;;;5.30;99.90;;;;;;4949118;28;20483;-66
2022/03/30 08:01:18;;;;;;;4.37;2.57;;;5.20;99.90;;;;;;4949141;28;20491;-67
2022/03/30 08:04:06;;;;;;;4.70;2.40;;;5.20;99.90;;;;;;4946614;28;20486;-66
2022/03/30 08:06:56;;;;;;;3.13;2.80;;;5.30;99.90;;;;;;4954425;28;20495;-67
2022/03/30 08:09:44;;;;;;;5.87;2.37;;;5.30;99.90;;;;;;4960619;28;20588;-66
2022/03/30 08:12:32;;;;;;;3.17;2.27;;;5.40;99.90;;;;;;4946845;28;20450;-66
2022/03/30 08:15:21;;;;;;;4.17;2.83;;;5.50;99.90;;;;;;4948101;28;20458;-67
2022/03/30 08:18:09;;;;;;;6.73;2.83;;;5.50;99.90;;;;;;4954204;28;20471;-67
2022/03/30 08:24:06;;;;;;;6.13;2.63;;;5.50;99.90;;;;;;4953185;28;20488;-67
2022/03/30 08:26:54;;;;;;;4.30;3.03;;;5.60;99.90;;;;;;4945016;28;20468;-67
2022/03/30 08:29:44;;;;;;;5.67;2.83;;;5.60;99.90;;;;;;4943261;28;20553;-66
2022/03/30 08:32:32;;;;;;;3.27;2.63;;;5.60;99.90;;;;;;4948393;28;20463;-67
2022/03/30 08:35:21;;;;;;;3.70;3.10;;;5.60;99.90;;;;;;4952356;28;20519;-66
2022/03/30 08:38:09;;;;;;;2.80;2.60;;;5.60;99.90;;;;;;4949437;29;20548;-66
2022/03/30 08:40:59;;;;;;;3.60;2.40;;;5.60;99.90;;;;;;4944573;28;20532;-67
2022/03/30 08:43:47;;;;;;;2.93;2.60;;;5.70;99.90;;;;;;4956100;28;20477;-67
2022/03/30 08:46:37;;;;;;;4.97;2.73;;;5.70;99.90;;;;;;4951315;28;20523;-67
2022/03/30 08:49:26;;;;;;;5.20;3.13;;;5.70;99.90;;;;;;4948272;28;20462;-67
2022/03/30 08:52:15;;;;;;;4.27;2.90;;;5.70;99.90;;;;;;4953385;28;20483;-67
2022/03/30 08:55:03;;;;;;;4.10;2.40;;;5.60;99.90;;;;;;4946411;28;20509;-67
2022/03/30 08:57:54;;;;;;;4.63;3.13;;;5.70;99.90;;;;;;4942565;28;20846;-67
2022/03/30 09:00:42;;;;;;;7.40;2.67;;;5.70;99.90;;;;;;4950215;28;20446;-67
2022/03/30 09:03:30;;;;;;;6.57;2.93;;;5.80;99.90;;;;;;4944962;29;20550;-67
2022/03/30 09:06:29;;;;;;;3.00;2.70;;;5.80;99.90;;;;;;4946719;28;20471;-68
2022/03/30 09:09:28;;;;;;;3.30;2.70;;;5.80;99.90;;;;;;4952691;28;20455;-67
2022/03/30 09:12:17;;;;;;;5.10;2.67;;;5.90;99.90;;;;;;4950560;28;20539;-67
2022/03/30 09:15:08;;;;;;;2.60;2.40;;;5.90;99.90;;;;;;4952960;28;20463;-66
2022/03/30 09:18:14;;;;;;;4.03;2.67;;;5.90;99.90;;;;;;4947008;28;20553;-67
2022/03/30 09:21:02;;;;;;;4.43;2.83;;;5.90;99.90;;;;;;4944099;28;20455;-67
2022/03/30 09:23:52;;;;;;;4.70;3.80;;;5.90;99.90;;;;;;4953963;28;20969;-67
2022/03/30 09:26:41;;;;;;;3.23;2.93;;;5.90;99.90;;;;;;4946722;28;20943;-67
2022/03/30 09:29:32;;;;;;;2.60;2.40;;;5.90;99.90;;;;;;4946439;29;20528;-67
2022/03/30 09:32:44;;;;;;;2.50;2.30;;;5.80;99.90;;;;;;4947008;28;20493;-68
2022/03/30 09:35:38;;;;;;;4.30;2.60;;;5.90;99.90;;;;;;4949121;28;20519;-67
2022/03/30 09:38:29;;;;;;;2.37;2.17;;;5.90;99.90;;;;;;4947444;28;20615;-67
2022/03/30 09:41:17;;;;;;;2.67;2.40;;;5.90;99.90;;;;;;4944925;28;20943;-66
2022/03/30 09:44:06;;;;;;;5.00;2.67;;;5.90;99.90;;;;;;4949677;29;20545;-67
2022/03/30 09:46:57;;;;;;;2.10;2.00;;;5.90;99.90;;;;;;4942739;28;20530;-67
2022/03/30 09:49:48;;;;;;;2.17;1.80;;;6.00;99.90;;;;;;4947968;28;20448;-67
2022/03/30 09:52:37;;;;;;;3.83;2.27;;;6.00;99.90;;;;;;4945429;28;21152;-67
2022/03/30 09:55:28;;;;;;;3.83;2.20;;;6.00;99.90;;;;;;4961715;28;20585;-67
2022/03/30 09:58:20;;;;;;;2.20;2.00;;;6.00;99.90;;;;;;4944690;28;20872;-67
2022/03/30 10:01:13;;;;;;;4.13;2.50;;;6.10;99.90;;;;;;4949639;28;20483;-67
2022/03/30 10:04:04;;;;;;;2.80;2.60;;;6.10;99.90;;;;;;4951486;28;20452;-67
2022/03/30 10:06:54;;;;;;;3.30;2.40;;;6.10;99.90;;;;;;4944389;28;20459;-67
2022/03/30 10:09:44;;;;;;;4.00;2.30;;;6.10;99.90;;;;;;4952977;28;20447;-67
2022/03/30 10:12:32;;;;;;;2.47;2.27;;;6.10;99.90;;;;;;4951568;28;20531;-67
2022/03/30 10:15:26;;;;;;;2.57;2.37;;;6.20;99.90;;;;;;4952055;28;20487;-67
2022/03/30 10:18:15;;;;;;;2.50;2.30;;;6.20;99.90;;;;;;4952083;28;20492;-67
2022/03/30 10:21:19;;;;;;;2.30;2.10;;;6.30;99.90;;;;;;4955426;28;20520;-66
2022/03/30 10:24:42;;;;;;;2.60;2.40;;;6.30;99.90;;;;;;4950156;28;21055;-67
2022/03/30 10:27:37;;;;;;;2.60;2.07;;;6.30;99.90;;;;;;4921964;28;20504;-67
2022/03/30 10:30:27;;;;;;;2.93;2.60;;;6.30;99.90;;;;;;4945811;28;20562;-67
2022/03/30 10:33:29;;;;;;;4.13;3.20;;;6.30;99.90;;;;;;4955747;28;20468;-67
2022/03/30 10:36:24;;;;;;;4.07;3.00;;;6.30;99.90;;;;;;4952892;28;20589;-66
2022/03/30 10:39:26;;;;;;;5.70;2.80;;;6.30;99.90;;;;;;4953235;28;20553;-67
2022/03/30 10:43:03;;;;;;;3.30;2.57;;;6.40;99.90;;;;;;4948183;28;20517;-67
2022/03/30 10:45:57;;;;;;;4.30;2.87;;;6.40;99.90;;;;;;4949422;28;20464;-67
2022/03/30 10:48:46;;;;;;;3.77;2.30;;;6.50;99.90;;;;;;4956956;23;20593;-72
2022/03/30 10:51:34;;;;;;;5.93;3.47;;;6.50;99.90;;;;;;4934482;29;20908;-73
2022/03/30 10:54:31;;;;;;;4.63;2.87;;;6.50;99.90;;;;;;4936351;29;20535;-72
2022/03/30 10:57:44;;;;;;;6.93;3.10;;;6.60;99.90;;;;;;4931489;29;20467;-72
2022/03/30 11:00:36;;;;;;;3.07;2.80;;;6.60;99.90;;;;;;4929032;29;20508;-74
2022/03/30 11:03:26;;;;;;;4.00;3.10;;;6.60;99.90;;;;;;4931711;29;20455;-72
2022/03/30 11:06:15;;;;;;;3.73;3.07;;;6.60;99.90;;;;;;4928053;29;20458;-71
2022/03/30 11:09:03;;;;;;;3.23;2.80;;;6.60;99.90;;;;;;4930153;29;20558;-72
2022/03/30 11:11:59;;;;;;;2.73;2.30;;;6.60;99.90;;;;;;4927930;29;21011;-72
2022/03/30 11:15:03;;;;;;;2.37;2.17;;;6.70;99.90;;;;;;4933857;29;20508;-72
2022/03/30 11:17:51;;;;;;;2.53;2.33;;;6.70;99.90;;;;;;4935512;29;20595;-72
2022/03/30 11:20:39;;;;;;;2.70;2.50;;;6.70;99.90;;;;;;4927451;29;20870;-72
2022/03/30 11:23:28;;;;;;;2.97;2.27;;;6.80;99.90;;;;;;4934539;29;20483;-72
2022/03/30 11:26:17;;;;;;;3.13;2.23;;;6.80;99.90;;;;;;4928210;29;20460;-73
2022/03/30 11:29:48;;;;;;;2.90;2.70;;;6.90;99.90;;;;;;4921826;29;20530;-72
2022/03/30 11:32:38;;;;;;;3.40;2.30;;;6.90;99.90;;;;;;4925032;29;20475;-73
2022/03/30 11:35:30;;;;;;;4.03;3.53;;;6.90;99.90;;;;;;4928904;29;20456;-71
2022/03/30 11:38:24;;;;;;;2.90;2.60;;;6.90;99.90;;;;;;4924140;29;21083;-72
2022/03/30 11:41:13;;;;;;;3.40;2.60;;;6.90;99.90;;;;;;4930493;29;20492;-73
2022/03/30 11:47:13;;;;;;;2.10;1.90;;;7.00;99.90;;;;;;4926611;29;20563;-74
2022/03/30 11:50:01;;;;;;;3.43;2.07;;;7.10;99.90;;;;;;4922666;29;20992;-71
2022/03/30 11:52:56;;;;;;;2.13;1.83;;;7.10;99.90;;;;;;4927158;28;20456;-73
2022/03/30 11:55:56;;;;;;;2.43;2.03;;;7.20;99.90;;;;;;4930709;29;20583;-72
2022/03/30 11:58:46;;;;;;;2.47;2.03;;;7.10;99.90;;;;;;4924704;29;20460;-72
2022/03/30 12:01:35;;;;;;;4.03;2.20;;;7.10;99.90;;;;;;4919374;29;20862;-71
2022/03/30 12:04:31;;;;;;;2.53;2.33;;;7.20;99.90;;;;;;4926850;28;20968;-71
2022/03/30 12:07:20;;;;;;;2.40;2.20;;;7.20;99.90;;;;;;4930769;29;20460;-72
2022/03/30 12:10:14;;;;;;;2.77;2.57;;;7.30;99.90;;;;;;4925544;29;20468;-73
2022/03/30 12:13:03;;;;;;;3.40;2.27;;;7.30;99.90;;;;;;4929531;29;20528;-71
2022/03/30 12:16:04;;;;;;;2.07;1.97;;;7.30;99.90;;;;;;4924654;29;20872;-71
2022/03/30 12:18:54;;;;;;;2.30;2.07;;;7.30;99.90;;;;;;4929728;29;20483;-71
2022/03/30 12:21:44;;;;;;;2.07;1.83;;;7.40;99.90;;;;;;4929145;29;20522;-73
2022/03/30 12:24:33;;;;;;;1.80;1.70;;;7.40;99.90;;;;;;4934189;29;20591;-71
2022/03/30 12:27:22;;;;;;;2.00;1.80;;;7.40;99.90;;;;;;4928464;29;20452;-71
2022/03/30 12:30:11;;;;;;;2.13;1.83;;;7.40;99.90;;;;;;4926987;29;20551;-71
2022/03/30 12:33:00;;;;;;;3.00;1.83;;;7.40;99.90;;;;;;4923779;29;20579;-72
2022/03/30 12:35:48;;;;;;;2.07;1.70;;;7.50;99.90;;;;;;4923839;29;20472;-71
2022/03/30 12:38:37;;;;;;;2.40;1.73;;;7.60;99.90;;;;;;4926961;29;20472;-71
2022/03/30 12:41:27;;;;;;;1.80;1.70;;;7.60;99.90;;;;;;4929057;29;20602;-71
2022/03/30 12:44:20;;;;;;;2.90;2.23;;;7.70;99.90;;;;;;4926725;29;20520;-72
2022/03/30 12:47:17;;;;;;;1.70;1.60;;;7.70;99.90;;;;;;4931786;29;20467;-71
2022/03/30 12:50:07;;;;;;;2.97;2.10;;;7.80;99.90;;;;;;4930420;29;20551;-71
2022/03/30 12:52:55;;;;;;;2.30;2.10;;;7.90;99.90;;;;;;4929275;29;20472;-71
2022/03/30 12:55:47;;;;;;;1.80;1.57;;;8.00;99.90;;;;;;4927839;29;20498;-72
2022/03/30 12:58:35;;;;;;;1.70;1.60;;;7.90;99.90;;;;;;4931634;28;21042;-73
2022/03/30 13:01:31;;;;;;;1.57;1.47;;;7.90;99.90;;;;;;4930004;29;20476;-71
2022/03/30 13:04:21;;;;;;;4.27;1.60;;;8.00;99.90;;;;;;4928785;29;20482;-72
2022/03/30 13:07:11;;;;;;;1.93;1.43;;;8.10;99.90;;;;;;4930310;29;20455;-71
2022/03/30 13:10:06;;;;;;;2.23;2.03;;;8.20;99.90;;;;;;4919340;29;20456;-71
2022/03/30 13:12:56;;;;;;;1.87;1.70;;;8.20;99.90;;;;;;4930247;29;20825;-71
2022/03/30 13:15:44;;;;;;;2.90;2.17;;;8.20;99.90;;;;;;4927637;29;21304;-72
2022/03/30 13:18:33;;;;;;;2.27;1.90;;;8.30;99.90;;;;;;4924911;29;20473;-71
2022/03/30 13:21:21;;;;;;;2.00;1.80;;;8.30;99.90;;;;;;4930467;29;20488;-71
2022/03/30 13:24:11;;;;;;;2.13;1.80;;;8.30;99.90;;;;;;4927018;29;20995;-72
2022/03/30 13:27:02;;;;;;;2.00;1.80;;;8.30;99.90;;;;;;4918598;28;20475;-71
2022/03/30 13:29:54;;;;;;;1.83;1.47;;;8.30;99.90;;;;;;4918025;29;20445;-71
2022/03/30 13:32:42;;;;;;;1.80;1.70;;;8.30;99.90;;;;;;4913085;29;20448;-71
2022/03/30 13:35:30;;;;;;;2.50;1.80;;;8.30;99.90;;;;;;4917571;29;20463;-71
2022/03/30 13:38:21;;;;;;;3.70;1.97;;;8.40;99.90;;;;;;4922605;29;20483;-72
2022/03/30 13:41:09;;;;;;;3.00;2.70;;;8.60;99.90;;;;;;4924832;29;20992;-71
2022/03/30 13:43:58;;;;;;;2.13;1.93;;;8.80;99.90;;;;;;4928253;29;20548;-71
2022/03/30 13:46:48;;;;;;;1.87;1.77;;;8.90;99.90;;;;;;4925481;29;20479;-71
2022/03/30 13:49:44;;;;;;;1.60;1.50;;;9.10;99.90;;;;;;4920405;29;20998;-71
2022/03/30 13:52:32;;;;;;;2.20;1.80;;;9.20;99.90;;;;;;4919149;29;20807;-69
2022/03/30 13:55:21;;;;;;;1.67;1.50;;;9.30;99.90;;;;;;4924419;29;20831;-71
2022/03/30 13:58:09;;;;;;;1.60;1.50;;;9.40;99.90;;;;;;4920915;29;20830;-69
2022/03/30 14:00:59;;;;;;;2.00;1.90;;;9.40;99.90;;;;;;4915098;29;21011;-68
2022/03/30 14:03:50;;;;;;;2.83;2.13;;;9.50;99.90;;;;;;4920709;29;21839;-68
2022/03/30 14:06:39;;;;;;;2.53;1.80;;;9.40;99.90;;;;;;4918863;29;20464;-70
2022/03/30 14:09:31;;;;;;;2.13;1.83;;;9.60;99.90;;;;;;4920541;29;20570;-71
2022/03/30 14:12:20;;;;;;;2.43;1.90;;;9.60;99.90;;;;;;4926574;29;20452;-70
2022/03/30 14:15:09;;;;;;;2.03;1.83;;;9.60;99.90;;;;;;4919340;29;20464;-70
2022/03/30 14:17:59;;;;;;;1.90;1.80;;;9.40;99.90;;;;;;4919437;28;20504;-70
2022/03/30 14:20:52;;;;;;;2.07;1.90;;;9.40;99.90;;;;;;4921474;29;21035;-69
2022/03/30 14:23:41;;;;;;;4.10;1.93;;;9.50;99.90;;;;;;4929344;29;20550;-69
2022/03/30 14:26:29;;;;;;;2.43;1.90;;;9.50;99.90;;;;;;4924107;29;20559;-69
2022/03/30 14:29:17;;;;;;;1.97;1.87;;;9.50;99.90;;;;;;4923112;29;20860;-71
2022/03/30 14:32:06;;;;;;;2.00;1.80;;;9.40;99.90;;;;;;4927452;29;20972;-71
2022/03/30 14:34:54;;;;;;;1.93;1.80;;;9.40;99.90;;;;;;4925643;29;20539;-69
2022/03/30 14:37:43;;;;;;;1.93;1.77;;;9.50;99.90;;;;;;4927603;29;20479;-69
2022/03/30 14:40:32;;;;;;;2.03;1.90;;;9.70;99.90;;;;;;4927359;28;20993;-70
2022/03/30 14:43:21;;;;;;;2.60;2.07;;;9.70;99.90;;;;;;4933764;29;20571;-69
2022/03/30 14:46:09;;;;;;;5.23;2.00;;;9.70;99.90;;;;;;4929720;29;20550;-69
2022/03/30 14:48:58;;;;;;;2.53;1.80;;;9.70;99.90;;;;;;4931025;29;20977;-69
2022/03/30 14:51:46;;;;;;;1.90;1.80;;;9.60;99.90;;;;;;4933368;29;20539;-72
2022/03/30 14:54:35;;;;;;;1.90;1.80;;;9.50;99.90;;;;;;4924624;28;20572;-71
2022/03/30 14:57:24;;;;;;;2.33;2.10;;;9.30;99.90;;;;;;4926722;29;20526;-70
2022/03/30 15:00:13;;;;;;;2.20;2.00;;;9.30;99.90;;;;;;4934508;29;20456;-70
2022/03/30 15:03:01;;;;;;;2.20;1.80;;;9.30;99.90;;;;;;4924081;29;20547;-73
2022/03/30 15:05:49;;;;;;;3.00;2.10;;;9.30;99.90;;;;;;4933332;29;20874;-73
2022/03/30 15:08:38;;;;;;;2.40;2.20;;;9.20;99.90;;;;;;4929080;29;20475;-73
2022/03/30 15:11:27;;;;;;;1.80;1.70;;;9.20;99.90;;;;;;4926975;29;20466;-72